Flugplatz Illertissen

Für EDMI sind keine METAR/TAF Berichte vorhanden.
Es werden die Flugwettermeldungen vom Flugplatz Laupheim Airport in 16 km Entfernung angezeigt.

Bericht für ETHL

vom 20.02. um 19:20 UTC

Wind 4 kt aus 230°

Sichtweite 10 km oder mehr

gering bewölkt in 4000 ft

aufgelockert bewölkt in 22000 ft

Temperatur 5.0°C

Taupunkt 1.0°C

Luftfeuchtigkeit 75%

Luftdruck 1017 hPa

ETHL 201920Z 23004KT 9999 FEW040 SCT220 05/01 Q1017 BLU+BLU+

Prognose für ETHL

vom 20.02. um 00:00 UTC

Zwischen 00:00 UTC und 00:00 UTC

Wind 12 kt aus 230°

Sichtweite 10 km oder mehr

keine signifikanten Wettererscheinungen

gering bewölkt in 3000 ft

aufgelockert bewölkt in 26000 ft


Zwischen 00:00 UTC und 00:00 UTC zeitweise

Wind 10 kt aus 240° in Böen 20 kt

Sichtweite 10 km oder mehr

keine signifikanten Wettererscheinungen

aufgelockert bewölkt in 3000 ft

aufgebrochene Bewölkung in 25000 ft


Am 21.02. zwischen 00:00 und 00:00 UTC übergehend zu

Wind 10 kt aus 260° in Böen 20 kt

Sichtweite 7000 m

schwacher Regen

aufgelockert bewölkt in 1500 ft

aufgebrochene Bewölkung in 2500 ft

TAF ETHL 201720Z 2018/2103 23012KT 9999 NSW FEW030 SCT260 TEMPO 2023/2101 24010G20KT 9999 NSW SCT030 BKN250 BECMG 2101/2103 26010G20KT 7000 -RA SCT015 BKN025
Impressum